Pays
Station

 

Conditions  météo  pour  Misawa Ab  -  Japon    Japon

  
13 °C
    
 
 

METAR pour Misawa Ab :

RJSM 301500Z 29015KT 9999 SCT035 13/09 Q1006 RMK 3CU035 A2971 MAX WIND 22KT FCST 1521 TEMPO 1521 28015G25KT FEW020CU BKN030CU

 

Voici le bulletin pour Misawa Ab - Japon.
 
Le bulletin a été fait il y a 635 heures et 52 minutes, à 15:00 UTC .
Le vent soufflait à la vitesse de 7.7 mètres par seconde de Ouest/Nord-ouest (290°).
 
La température était de 13 °C, avec un point de rosée à 9 °C.
La pression atmosphérique était de 1006 hPa.
L'humidité relative était de 76.7%.
 
Il y avait 3 à 4/8ème de nébulosité à une hauteur de 1067 mètres.
 
La visibilité globale était de supérieure à 10 kilomètres.
 

 
 
 

Pays :   A   B   C   D   E   F   G   H   I   J   K   L   M   N   O   P   Q   R   S   T   U   V   W   Y   Z

 

Partenaires :  Info Météo avec Met'info
Météo Marine avec MeteoMarine.net
Infos Site  |  Infos Légales  |  Crédits  |  Confidentialité
Contactez-nous  |  Ajouter aux favoris
© 2013-2018 METAR - Tous droits réservés